createdAt,value
2022-10-29T00:00:12.178Z,64.23
2022-10-29T00:01:12.225Z,62.42
2022-10-29T00:02:12.163Z,62.03
2022-10-29T00:03:12.271Z,59.90
2022-10-29T00:04:12.128Z,60.38
2022-10-29T00:05:12.126Z,61.23
2022-10-29T00:06:12.124Z,58.06
2022-10-29T00:07:12.128Z,61.29
2022-10-29T00:08:12.096Z,59.93
2022-10-29T00:09:12.087Z,57.32
2022-10-29T00:10:12.076Z,56.62
2022-10-29T00:11:12.094Z,60.90
2022-10-29T00:12:12.072Z,61.16
2022-10-29T00:13:12.077Z,60.10
2022-10-29T00:14:12.042Z,61.37
2022-10-29T00:15:12.057Z,63.96
2022-10-29T00:16:12.027Z,57.51
2022-10-29T00:17:12.026Z,59.75
2022-10-29T00:18:12.012Z,63.11
2022-10-29T00:19:12.049Z,62.66
2022-10-29T00:20:12.022Z,61.68
2022-10-29T00:21:12.008Z,63.25
2022-10-29T00:22:11.993Z,62.38
2022-10-29T00:23:11.981Z,57.36
2022-10-29T00:24:11.989Z,60.86
2022-10-29T00:25:11.968Z,61.86
2022-10-29T00:26:11.953Z,61.50
2022-10-29T00:27:11.947Z,59.66
2022-10-29T00:28:11.936Z,59.62
2022-10-29T00:29:11.950Z,60.73
2022-10-29T00:30:11.935Z,61.84
2022-10-29T00:31:11.909Z,57.49
2022-10-29T00:32:11.961Z,60.37
2022-10-29T00:33:11.928Z,61.33
2022-10-29T00:34:11.879Z,59.72
2022-10-29T00:35:11.896Z,58.57
2022-10-29T00:36:11.912Z,59.80
2022-10-29T00:37:11.887Z,60.05
2022-10-29T00:38:11.853Z,60.28
2022-10-29T00:39:11.853Z,61.96
2022-10-29T00:40:11.848Z,60.37
2022-10-29T00:41:11.868Z,59.50
2022-10-29T00:42:11.829Z,58.39
2022-10-29T00:43:11.824Z,61.21
2022-10-29T00:44:11.805Z,61.30
2022-10-29T00:45:11.829Z,57.31
2022-10-29T00:46:11.786Z,63.59
2022-10-29T00:47:11.832Z,60.15
2022-10-29T00:48:11.812Z,62.97
2022-10-29T00:49:11.780Z,62.65
2022-10-29T00:50:11.760Z,59.05
2022-10-29T00:51:11.765Z,60.87
2022-10-29T00:52:11.822Z,63.71
2022-10-29T00:53:11.747Z,61.03
2022-10-29T00:54:11.858Z,55.56
2022-10-29T00:55:11.725Z,58.53
2022-10-29T00:56:11.802Z,63.46
2022-10-29T00:57:11.716Z,63.07
2022-10-29T00:58:11.713Z,56.35
2022-10-29T00:59:11.701Z,59.48
2022-10-29T01:00:11.736Z,61.72
2022-10-29T01:01:11.743Z,59.94
2022-10-29T01:02:11.928Z,62.64
2022-10-29T01:03:11.819Z,62.23
2022-10-29T01:04:11.653Z,60.76
2022-10-29T01:05:11.643Z,59.20
2022-10-29T01:06:11.673Z,60.66
2022-10-29T01:07:11.644Z,60.70
2022-10-29T01:08:11.623Z,60.07
2022-10-29T01:09:11.612Z,62.56
2022-10-29T01:10:11.604Z,59.85
2022-10-29T01:11:11.605Z,61.25
2022-10-29T01:12:11.611Z,61.41
2022-10-29T01:13:11.621Z,56.14
2022-10-29T01:14:11.583Z,56.64
2022-10-29T01:15:11.569Z,58.26
2022-10-29T01:16:11.566Z,62.25
2022-10-29T01:17:11.624Z,59.95
2022-10-29T01:18:11.551Z,60.94
2022-10-29T01:19:11.581Z,58.28
2022-10-29T01:20:11.530Z,60.19
2022-10-29T01:21:11.533Z,58.82
2022-10-29T01:22:11.511Z,63.64
2022-10-29T01:23:11.520Z,57.81
2022-10-29T01:24:11.536Z,58.49
2022-10-29T01:25:11.516Z,59.09
2022-10-29T01:26:11.525Z,59.13
2022-10-29T01:27:11.473Z,59.70
2022-10-29T01:28:11.492Z,59.85
2022-10-29T01:29:11.464Z,60.69
2022-10-29T01:30:11.457Z,58.07
2022-10-29T01:31:11.446Z,55.33
2022-10-29T01:32:11.470Z,59.30
2022-10-29T01:33:11.428Z,57.10
2022-10-29T01:34:11.453Z,60.28
2022-10-29T01:35:11.419Z,59.14
2022-10-29T01:36:11.414Z,59.36
2022-10-29T01:37:11.400Z,59.55
2022-10-29T01:38:11.403Z,61.04
2022-10-29T01:39:11.381Z,59.12
2022-10-29T01:40:11.471Z,61.14
2022-10-29T01:41:11.368Z,61.91
2022-10-29T01:42:11.385Z,60.98
2022-10-29T01:43:11.405Z,59.08
2022-10-29T01:44:11.343Z,56.86
2022-10-29T01:45:11.343Z,56.09
2022-10-29T01:46:11.332Z,61.97
2022-10-29T01:47:11.320Z,58.88
2022-10-29T01:48:11.354Z,58.98
2022-10-29T01:49:11.304Z,58.57
2022-10-29T01:50:11.309Z,61.85
2022-10-29T01:51:11.296Z,60.97
2022-10-29T01:52:11.291Z,57.62
2022-10-29T01:53:11.287Z,59.79
2022-10-29T01:54:11.286Z,59.83
2022-10-29T01:55:11.317Z,60.18
2022-10-29T01:56:11.248Z,60.41
2022-10-29T01:57:11.246Z,64.62
2022-10-29T01:58:11.273Z,58.78
2022-10-29T01:59:18.325Z,63.22
2022-10-29T02:02:37.887Z,61.55
2022-10-29T02:03:37.861Z,62.56
2022-10-29T02:04:37.864Z,57.65
2022-10-29T02:05:37.862Z,61.46
2022-10-29T02:06:37.828Z,61.72
2022-10-29T02:07:37.816Z,57.70
2022-10-29T02:08:37.881Z,59.94
2022-10-29T02:09:37.804Z,60.77
2022-10-29T02:10:37.847Z,57.11
2022-10-29T02:11:37.820Z,58.38
2022-10-29T02:12:37.780Z,63.99
2022-10-29T02:13:37.765Z,59.77
2022-10-29T02:14:37.816Z,53.59
2022-10-29T02:15:37.766Z,57.55
2022-10-29T02:16:37.743Z,61.19
2022-10-29T02:17:37.792Z,61.61
2022-10-29T02:18:37.733Z,58.78
2022-10-29T02:19:37.754Z,56.37
2022-10-29T02:20:37.714Z,60.76
2022-10-29T02:21:37.709Z,60.44
2022-10-29T02:22:37.700Z,59.77
2022-10-29T02:23:37.717Z,60.52
2022-10-29T02:24:37.696Z,63.66
2022-10-29T02:25:37.719Z,63.30
2022-10-29T02:26:37.665Z,58.47
2022-10-29T02:27:37.662Z,59.73
2022-10-29T02:28:37.643Z,60.62
2022-10-29T02:29:37.680Z,60.86
2022-10-29T02:30:37.637Z,62.18
2022-10-29T02:31:37.625Z,61.64
2022-10-29T02:32:37.624Z,60.21
2022-10-29T02:33:37.626Z,62.18
2022-10-29T02:34:37.607Z,65.16
2022-10-29T02:35:37.587Z,61.61
2022-10-29T02:36:37.585Z,61.23
2022-10-29T02:37:37.566Z,58.37
2022-10-29T02:38:37.585Z,60.33
2022-10-29T02:39:37.588Z,56.16
2022-10-29T02:40:37.548Z,56.77
2022-10-29T02:41:37.565Z,62.21
2022-10-29T02:42:38.263Z,63.23
2022-10-29T02:43:37.531Z,57.79
2022-10-29T02:44:37.521Z,59.53
2022-10-29T02:45:37.516Z,60.39
2022-10-29T02:46:37.492Z,58.70
2022-10-29T02:47:37.505Z,56.22
2022-10-29T02:48:37.477Z,61.89
2022-10-29T02:49:37.473Z,58.86
2022-10-29T02:50:37.475Z,58.75
2022-10-29T02:51:37.452Z,62.15
2022-10-29T02:52:37.463Z,62.71
2022-10-29T02:53:37.444Z,57.85
2022-10-29T02:54:37.480Z,63.41
2022-10-29T02:55:37.421Z,57.74
2022-10-29T02:56:37.429Z,61.62
2022-10-29T02:57:37.406Z,65.27
2022-10-29T02:58:37.454Z,62.27
2022-10-29T02:59:37.404Z,61.67
2022-10-29T03:00:37.481Z,60.71
2022-10-29T03:01:37.556Z,63.27
2022-10-29T03:02:37.436Z,62.35
2022-10-29T03:03:37.355Z,60.05
2022-10-29T03:04:37.343Z,62.12
2022-10-29T03:05:37.332Z,61.95
2022-10-29T03:06:37.325Z,61.32
2022-10-29T03:07:37.362Z,59.61
2022-10-29T03:08:37.315Z,63.19
2022-10-29T03:09:37.304Z,65.62
2022-10-29T03:10:37.303Z,65.36
2022-10-29T03:11:37.294Z,60.77
2022-10-29T03:12:37.283Z,57.88
2022-10-29T03:14:37.270Z,59.00
2022-10-29T03:15:37.267Z,64.02
2022-10-29T03:16:37.273Z,60.44
2022-10-29T03:17:37.237Z,62.79
2022-10-29T03:18:37.229Z,59.88
2022-10-29T03:19:37.214Z,61.35
2022-10-29T03:20:37.220Z,59.11
2022-10-29T03:21:37.224Z,59.38
2022-10-29T03:22:37.225Z,61.62
2022-10-29T03:23:37.188Z,62.38
2022-10-29T03:24:37.181Z,62.42
2022-10-29T03:25:37.172Z,58.35
2022-10-29T03:26:37.174Z,58.43
2022-10-29T03:27:37.177Z,61.90
2022-10-29T03:28:37.219Z,59.56
2022-10-29T03:29:37.149Z,61.66
2022-10-29T03:30:37.140Z,61.36
2022-10-29T03:31:37.137Z,64.54
2022-10-29T03:32:37.129Z,61.19
2022-10-29T03:33:37.137Z,62.52
2022-10-29T03:34:37.110Z,65.02
2022-10-29T03:35:37.123Z,62.31
2022-10-29T03:36:37.097Z,64.86
2022-10-29T03:37:37.079Z,63.54
2022-10-29T03:38:37.068Z,65.11
2022-10-29T03:39:37.116Z,62.80
2022-10-29T03:40:37.052Z,60.14
2022-10-29T03:41:37.074Z,64.75
2022-10-29T03:42:37.032Z,64.17
2022-10-29T03:43:37.027Z,58.52
2022-10-29T03:44:37.016Z,62.09
2022-10-29T03:45:37.080Z,61.14
2022-10-29T03:46:36.993Z,60.65
2022-10-29T03:47:36.995Z,58.14
2022-10-29T03:48:37.008Z,60.66
2022-10-29T03:49:36.982Z,60.51
2022-10-29T03:50:36.980Z,58.72
2022-10-29T03:51:37.017Z,59.33
2022-10-29T03:52:36.963Z,60.88
2022-10-29T03:53:36.947Z,61.81
2022-10-29T03:54:36.959Z,58.83
2022-10-29T03:55:36.937Z,58.58
2022-10-29T03:56:36.920Z,63.41
2022-10-29T03:57:36.963Z,61.69
2022-10-29T03:58:36.900Z,61.15
2022-10-29T03:59:36.896Z,59.02
2022-10-29T04:00:36.891Z,58.53
2022-10-29T04:01:37.003Z,62.05
2022-10-29T04:02:37.085Z,60.37
2022-10-29T04:03:36.879Z,59.24
2022-10-29T04:04:36.850Z,61.59
2022-10-29T04:05:36.850Z,62.34
2022-10-29T04:06:36.868Z,62.95
2022-10-29T04:07:36.832Z,61.73
2022-10-29T04:08:36.826Z,58.21
2022-10-29T04:09:36.843Z,59.15
2022-10-29T04:10:36.808Z,59.13
2022-10-29T04:11:36.804Z,57.68
2022-10-29T04:12:36.802Z,61.21
2022-10-29T04:13:36.783Z,61.42
2022-10-29T04:14:41.328Z,62.12
2022-10-29T04:15:37.760Z,56.10
2022-10-29T04:16:36.752Z,59.00
2022-10-29T04:17:36.751Z,61.22
2022-10-29T04:18:36.759Z,63.56
2022-10-29T04:19:36.767Z,62.38
2022-10-29T04:21:26.576Z,64.14
2022-10-29T04:28:43.082Z,63.77
2022-10-29T04:29:37.666Z,63.86
2022-10-29T04:30:36.662Z,60.31
2022-10-29T04:31:36.631Z,62.69
2022-10-29T04:32:36.628Z,60.11
2022-10-29T04:33:36.630Z,63.76
2022-10-29T04:34:36.607Z,63.59
2022-10-29T04:35:36.600Z,65.49
2022-10-29T04:36:36.611Z,61.60
2022-10-29T04:37:36.591Z,65.31
2022-10-29T04:38:36.604Z,65.75
2022-10-29T04:39:36.580Z,63.84
2022-10-29T04:40:36.563Z,61.66
2022-10-29T04:41:36.553Z,62.00
2022-10-29T04:42:36.600Z,65.96
2022-10-29T04:43:36.535Z,65.68
2022-10-29T04:44:36.542Z,66.37
2022-10-29T04:45:36.573Z,63.73
2022-10-29T04:46:36.518Z,62.14
2022-10-29T04:47:36.501Z,62.50
2022-10-29T04:48:36.558Z,63.93
2022-10-29T04:49:36.479Z,65.72
2022-10-29T04:50:36.477Z,65.59
2022-10-29T04:51:36.499Z,63.22
2022-10-29T04:52:36.462Z,65.16
2022-10-29T04:53:36.453Z,64.00
2022-10-29T04:54:36.459Z,66.35
2022-10-29T04:55:36.443Z,64.85
2022-10-29T04:56:36.438Z,62.93
2022-10-29T04:57:36.442Z,66.79
2022-10-29T04:58:36.418Z,66.29
2022-10-29T04:59:36.477Z,67.05
2022-10-29T05:00:36.479Z,65.48
2022-10-29T05:02:36.449Z,68.01
2022-10-29T05:03:36.373Z,67.33
2022-10-29T05:04:36.364Z,63.91
2022-10-29T05:05:36.361Z,66.46
2022-10-29T05:06:36.350Z,65.50
2022-10-29T05:07:36.339Z,64.07
2022-10-29T05:08:36.386Z,66.09
2022-10-29T05:09:36.327Z,67.84
2022-10-29T05:10:36.318Z,64.77
2022-10-29T05:11:36.316Z,66.31
2022-10-29T05:12:36.308Z,64.19
2022-10-29T05:13:36.301Z,66.52
2022-10-29T05:14:36.322Z,64.11
2022-10-29T05:15:36.289Z,67.18
2022-10-29T05:16:36.379Z,64.90
2022-10-29T05:17:36.262Z,65.95
2022-10-29T05:18:36.259Z,62.82
2022-10-29T05:19:36.266Z,64.39
2022-10-29T05:20:36.241Z,63.97
2022-10-29T05:21:36.254Z,64.60
2022-10-29T05:22:36.224Z,64.72
2022-10-29T05:23:36.212Z,64.85
2022-10-29T05:24:36.220Z,63.13
2022-10-29T05:25:36.231Z,64.01
2022-10-29T05:26:36.267Z,63.56
2022-10-29T05:27:36.197Z,64.99
2022-10-29T05:28:36.217Z,64.92
2022-10-29T05:29:36.183Z,62.33
2022-10-29T05:30:36.165Z,62.03
2022-10-29T05:31:36.194Z,65.09
2022-10-29T05:33:36.134Z,63.48
2022-10-29T05:34:38.389Z,61.44
2022-10-29T05:35:36.125Z,62.44
2022-10-29T05:36:36.137Z,64.15
2022-10-29T05:37:36.106Z,65.94
2022-10-29T05:38:36.125Z,64.40
2022-10-29T05:39:36.092Z,65.58
2022-10-29T05:40:36.142Z,61.42
2022-10-29T05:41:36.082Z,62.79
2022-10-29T05:42:36.095Z,62.58
2022-10-29T05:43:36.057Z,61.63
2022-10-29T05:44:36.050Z,65.25
2022-10-29T05:45:36.041Z,64.31
2022-10-29T05:46:36.034Z,64.52
2022-10-29T05:47:36.026Z,66.02
2022-10-29T05:48:36.045Z,63.23
2022-10-29T05:49:36.016Z,66.01
2022-10-29T05:50:36.013Z,63.65
2022-10-29T05:51:36.020Z,64.55
2022-10-29T05:52:36.001Z,63.50
2022-10-29T05:53:36.031Z,64.91
2022-10-29T05:54:35.978Z,65.88
2022-10-29T05:55:35.979Z,65.17
2022-10-29T05:56:35.950Z,64.41
2022-10-29T05:57:35.946Z,64.97
2022-10-29T05:58:36.050Z,66.92
2022-10-29T05:59:35.951Z,67.48
2022-10-29T06:00:35.932Z,65.71
2022-10-29T06:01:36.102Z,68.28
2022-10-29T06:02:35.950Z,65.69
2022-10-29T06:03:35.928Z,67.00
2022-10-29T06:04:35.890Z,67.24
2022-10-29T06:05:35.875Z,66.63
2022-10-29T06:06:35.946Z,65.26
2022-10-29T06:07:35.864Z,65.67
2022-10-29T06:08:35.860Z,65.57
2022-10-29T06:09:35.856Z,65.71
2022-10-29T06:10:35.840Z,63.74
2022-10-29T06:11:35.855Z,63.76
2022-10-29T06:12:35.825Z,63.42
2022-10-29T06:13:35.802Z,66.12
2022-10-29T06:14:35.806Z,64.77
2022-10-29T06:15:35.817Z,67.13
2022-10-29T06:16:35.829Z,64.72
2022-10-29T06:17:35.771Z,66.54
2022-10-29T06:18:35.812Z,66.61
2022-10-29T06:19:35.793Z,64.67
2022-10-29T06:20:35.753Z,64.39
2022-10-29T06:21:35.748Z,63.28
2022-10-29T06:22:35.754Z,64.88
2022-10-29T06:23:35.736Z,66.84
2022-10-29T06:24:35.750Z,63.28
2022-10-29T06:25:35.789Z,65.44
2022-10-29T06:26:35.710Z,63.88
2022-10-29T06:27:35.714Z,65.28
2022-10-29T06:28:35.689Z,63.49
2022-10-29T06:29:35.680Z,65.07
2022-10-29T06:30:35.676Z,66.99
2022-10-29T06:31:35.784Z,64.49
2022-10-29T06:32:35.710Z,64.62
2022-10-29T06:33:35.657Z,64.29
2022-10-29T06:34:35.649Z,65.83
2022-10-29T06:36:35.628Z,68.60
2022-10-29T06:37:35.633Z,71.73
2022-10-29T06:38:35.612Z,70.47
2022-10-29T06:39:35.622Z,66.27
2022-10-29T06:40:35.599Z,67.20
2022-10-29T06:41:35.579Z,70.14
2022-10-29T06:42:35.572Z,69.09
2022-10-29T06:43:35.567Z,68.29
2022-10-29T06:44:35.593Z,69.74
2022-10-29T06:45:35.573Z,68.19
2022-10-29T06:46:35.534Z,67.39
2022-10-29T06:47:35.529Z,67.07
2022-10-29T06:48:35.522Z,69.59
2022-10-29T06:49:35.508Z,69.02
2022-10-29T06:50:35.531Z,68.58
2022-10-29T06:51:35.543Z,67.76
2022-10-29T06:52:35.485Z,70.24
2022-10-29T06:53:35.498Z,70.25
2022-10-29T06:54:35.475Z,67.70
2022-10-29T06:55:35.479Z,70.55
2022-10-29T06:56:35.448Z,70.72
2022-10-29T06:57:35.561Z,69.79
2022-10-29T06:58:35.436Z,71.38
2022-10-29T06:59:35.439Z,71.63
2022-10-29T07:00:35.591Z,69.10
2022-10-29T07:01:35.530Z,64.12
2022-10-29T07:02:35.410Z,65.21
2022-10-29T07:03:35.405Z,66.45
2022-10-29T07:04:35.418Z,67.37
2022-10-29T07:05:35.383Z,65.38
2022-10-29T07:06:35.417Z,63.23
2022-10-29T07:07:35.371Z,65.11
2022-10-29T07:08:35.368Z,65.52
2022-10-29T07:09:35.437Z,65.37
2022-10-29T07:10:35.355Z,65.29
2022-10-29T07:11:35.333Z,65.05
2022-10-29T07:12:35.325Z,64.80
2022-10-29T07:13:35.310Z,64.83
2022-10-29T07:14:35.311Z,65.35
2022-10-29T07:15:37.469Z,63.66
2022-10-29T07:16:35.308Z,65.91
2022-10-29T07:17:35.287Z,64.57
2022-10-29T07:18:36.028Z,64.49
2022-10-29T07:19:36.719Z,66.01
2022-10-29T07:20:35.258Z,65.88
2022-10-29T07:21:35.276Z,65.36
2022-10-29T07:22:35.253Z,64.44
2022-10-29T07:23:35.261Z,65.87
2022-10-29T07:24:35.226Z,64.76
2022-10-29T07:25:35.209Z,63.10
2022-10-29T07:26:35.284Z,63.90
2022-10-29T07:27:35.385Z,64.46
2022-10-29T07:28:35.187Z,65.64
2022-10-29T07:29:35.180Z,64.11
2022-10-29T07:30:35.206Z,64.86
2022-10-29T07:31:35.194Z,66.00
2022-10-29T07:32:35.163Z,65.88
2022-10-29T07:33:35.202Z,65.26
2022-10-29T07:34:35.153Z,64.24
2022-10-29T07:35:35.149Z,63.72
2022-10-29T07:36:35.135Z,65.04
2022-10-29T07:37:35.120Z,64.38
2022-10-29T07:38:35.114Z,62.55
2022-10-29T07:39:35.136Z,65.78
2022-10-29T07:40:35.105Z,62.47
2022-10-29T07:41:35.088Z,66.60
2022-10-29T07:42:36.760Z,64.86
2022-10-29T07:43:35.071Z,63.40
2022-10-29T07:44:35.062Z,66.29
2022-10-29T07:45:35.086Z,67.01
2022-10-29T07:46:35.050Z,63.57
2022-10-29T07:47:35.033Z,64.50
2022-10-29T07:48:35.044Z,63.64
2022-10-29T07:49:35.031Z,66.39
2022-10-29T07:50:35.023Z,64.99
2022-10-29T07:51:35.025Z,66.13
2022-10-29T07:52:34.995Z,61.73
2022-10-29T07:53:34.986Z,65.71
2022-10-29T07:54:35.027Z,67.03
2022-10-29T07:55:35.838Z,66.58
2022-10-29T07:56:35.099Z,64.51
2022-10-29T07:57:34.994Z,65.36
2022-10-29T07:58:35.010Z,68.02
2022-10-29T07:59:34.949Z,65.20
2022-10-29T08:02:55.341Z,63.81
2022-10-29T08:03:55.314Z,62.93
2022-10-29T08:04:55.303Z,59.71
2022-10-29T08:05:56.775Z,63.62
2022-10-29T08:06:55.296Z,63.29
2022-10-29T08:07:55.714Z,63.87
2022-10-29T08:08:55.297Z,65.26
2022-10-29T08:09:55.258Z,64.72
2022-10-29T08:10:55.258Z,64.62
2022-10-29T08:11:55.300Z,65.45
2022-10-29T08:12:55.692Z,65.12
2022-10-29T08:13:55.250Z,66.06
2022-10-29T08:14:55.250Z,62.93
2022-10-29T08:15:55.398Z,64.71
2022-10-29T08:16:55.370Z,64.69
2022-10-29T08:17:55.222Z,65.11
2022-10-29T08:18:55.713Z,65.54
2022-10-29T08:19:55.215Z,63.47
2022-10-29T08:20:55.182Z,64.32
2022-10-29T08:21:55.214Z,65.54
2022-10-29T08:22:55.681Z,66.51
2022-10-29T08:23:55.163Z,64.21
2022-10-29T08:24:55.169Z,64.46
2022-10-29T08:25:55.154Z,65.59
2022-10-29T08:26:55.139Z,65.57
2022-10-29T08:27:55.173Z,65.63
2022-10-29T08:28:55.113Z,64.26
2022-10-29T08:29:55.106Z,63.97
2022-10-29T08:30:55.116Z,65.81
2022-10-29T08:31:55.079Z,63.09
2022-10-29T08:32:55.487Z,65.27
2022-10-29T08:33:55.078Z,66.43
2022-10-29T08:34:55.085Z,64.60
2022-10-29T08:35:55.052Z,64.22
2022-10-29T08:36:55.109Z,64.42
2022-10-29T08:37:55.052Z,65.18
2022-10-29T08:38:55.035Z,64.03
2022-10-29T08:39:55.063Z,63.69
2022-10-29T08:40:55.014Z,64.07
2022-10-29T08:41:55.013Z,63.47
2022-10-29T08:42:55.400Z,64.36
2022-10-29T08:43:55.062Z,63.96
2022-10-29T08:44:54.975Z,63.90
2022-10-29T08:45:54.989Z,64.08
2022-10-29T08:46:54.979Z,64.11
2022-10-29T08:47:55.333Z,65.66
2022-10-29T08:48:56.766Z,63.74
2022-10-29T08:49:54.958Z,62.05
2022-10-29T08:50:54.940Z,63.68
2022-10-29T08:51:54.942Z,62.56
2022-10-29T08:53:19.384Z,62.69
2022-10-29T08:54:25.064Z,63.78
2022-10-29T08:54:55.929Z,64.14
2022-10-29T08:55:55.716Z,63.79
2022-10-29T08:56:54.899Z,64.34
2022-10-29T08:57:55.149Z,61.01
2022-10-29T08:58:54.872Z,64.36
2022-10-29T08:59:54.922Z,65.38
2022-10-29T09:00:54.895Z,64.96
2022-10-29T09:01:54.981Z,62.01
2022-10-29T09:02:55.040Z,62.90
2022-10-29T09:03:54.839Z,63.22
2022-10-29T09:04:54.829Z,62.24
2022-10-29T09:05:54.848Z,64.10
2022-10-29T09:06:54.818Z,64.06
2022-10-29T09:07:57.152Z,64.47
2022-10-29T09:08:54.804Z,63.90
2022-10-29T09:09:54.799Z,64.65
2022-10-29T09:10:54.911Z,65.80
2022-10-29T09:11:54.806Z,64.68
2022-10-29T09:12:56.130Z,63.96
2022-10-29T09:13:54.763Z,64.72
2022-10-29T09:14:54.758Z,64.99
2022-10-29T09:15:57.597Z,63.65
2022-10-29T09:16:54.753Z,63.82
2022-10-29T09:17:55.067Z,62.96
2022-10-29T09:18:54.731Z,63.77
2022-10-29T09:19:54.861Z,63.52
2022-10-29T09:20:54.712Z,62.57
2022-10-29T09:21:54.699Z,63.21
2022-10-29T09:22:54.766Z,64.97
2022-10-29T09:23:54.681Z,63.67
2022-10-29T09:24:54.667Z,63.56
2022-10-29T09:25:54.670Z,63.63
2022-10-29T09:26:54.657Z,62.15
2022-10-29T09:27:55.063Z,63.39
2022-10-29T09:28:54.663Z,64.40
2022-10-29T09:29:54.636Z,65.15
2022-10-29T09:30:54.630Z,62.60
2022-10-29T09:31:54.646Z,62.16
2022-10-29T09:32:54.621Z,63.80
2022-10-29T09:33:57.812Z,62.96
2022-10-29T09:34:55.591Z,63.03
2022-10-29T09:35:54.639Z,62.31
2022-10-29T09:36:54.586Z,63.87
2022-10-29T09:37:55.040Z,62.76
2022-10-29T09:38:54.561Z,62.84
2022-10-29T09:39:54.547Z,61.40
2022-10-29T09:40:54.543Z,63.08
2022-10-29T09:41:54.543Z,62.43
2022-10-29T09:42:54.523Z,63.35
2022-10-29T09:43:54.533Z,63.96
2022-10-29T09:44:54.504Z,61.33
2022-10-29T09:45:54.531Z,62.73
2022-10-29T09:46:54.502Z,62.60
2022-10-29T09:47:54.785Z,65.09
2022-10-29T09:48:54.506Z,63.84
2022-10-29T09:49:54.465Z,62.94
2022-10-29T09:50:54.492Z,63.27
2022-10-29T09:51:54.456Z,62.18
2022-10-29T09:52:54.803Z,64.09
2022-10-29T09:53:54.437Z,62.25
2022-10-29T09:54:54.420Z,64.39
2022-10-29T09:55:54.413Z,62.10
2022-10-29T09:56:56.192Z,63.57
2022-10-29T09:57:54.404Z,64.91
2022-10-29T09:58:54.386Z,64.35
2022-10-29T09:59:54.383Z,62.38
2022-10-29T10:00:54.369Z,63.96
2022-10-29T10:01:54.440Z,64.89
2022-10-29T10:02:54.951Z,64.85
2022-10-29T10:03:54.409Z,62.26
2022-10-29T10:04:54.343Z,62.40
2022-10-29T10:05:54.338Z,63.67
2022-10-29T10:06:54.324Z,63.72
2022-10-29T10:07:54.645Z,62.83
2022-10-29T10:08:54.324Z,63.26
2022-10-29T10:09:54.339Z,63.29
2022-10-29T10:10:54.300Z,63.74
2022-10-29T10:11:54.283Z,62.03
2022-10-29T10:12:54.277Z,61.05
2022-10-29T10:13:54.267Z,60.37
2022-10-29T10:14:54.272Z,62.83
2022-10-29T10:15:54.257Z,63.10
2022-10-29T10:16:54.232Z,61.82
2022-10-29T10:17:54.536Z,63.42
2022-10-29T10:18:54.232Z,62.16
2022-10-29T10:19:54.220Z,63.61
2022-10-29T10:20:54.196Z,62.41
2022-10-29T10:21:54.218Z,63.29
2022-10-29T10:22:54.555Z,62.55
2022-10-29T10:23:54.226Z,62.55
2022-10-29T10:24:54.291Z,64.00
2022-10-29T10:25:54.171Z,62.86
2022-10-29T10:26:54.247Z,62.14
2022-10-29T10:27:54.564Z,61.45
2022-10-29T10:28:54.139Z,62.47
2022-10-29T10:29:54.139Z,63.21
2022-10-29T10:30:54.111Z,64.22
2022-10-29T10:31:54.132Z,63.11
2022-10-29T10:32:54.497Z,60.21
2022-10-29T10:33:54.126Z,62.40
2022-10-29T10:34:54.078Z,62.35
2022-10-29T10:35:54.072Z,62.67
2022-10-29T10:36:54.061Z,63.72
2022-10-29T10:37:54.284Z,63.92
2022-10-29T10:38:54.040Z,65.10
2022-10-29T10:39:54.057Z,64.24
2022-10-29T10:40:54.012Z,62.78
2022-10-29T10:41:54.016Z,64.06
2022-10-29T10:42:54.034Z,63.57
2022-10-29T10:43:53.997Z,65.00
2022-10-29T10:44:53.984Z,62.62
2022-10-29T10:45:54.013Z,62.47
2022-10-29T10:46:53.978Z,61.39
2022-10-29T10:47:54.341Z,62.79
2022-10-29T10:48:53.954Z,63.07
2022-10-29T10:49:53.951Z,63.84
2022-10-29T10:50:53.938Z,63.51
2022-10-29T10:51:53.930Z,63.45
2022-10-29T10:52:54.301Z,61.81
2022-10-29T10:53:53.980Z,64.10
2022-10-29T10:54:53.902Z,62.66
2022-10-29T10:55:53.896Z,62.39
2022-10-29T10:56:53.881Z,63.99
2022-10-29T10:57:53.885Z,63.24
2022-10-29T10:58:53.927Z,62.19
2022-10-29T10:59:53.866Z,63.48
2022-10-29T11:00:53.891Z,62.46
2022-10-29T11:01:53.976Z,61.31
2022-10-29T11:02:54.235Z,62.32
2022-10-29T11:03:53.833Z,62.39
2022-10-29T11:04:53.839Z,62.10
2022-10-29T11:05:53.819Z,63.96
2022-10-29T11:06:53.798Z,64.19
2022-10-29T11:07:54.132Z,62.35
2022-10-29T11:08:53.824Z,60.98
2022-10-29T11:09:53.790Z,62.33
2022-10-29T11:10:53.770Z,62.54
2022-10-29T11:11:58.739Z,63.03
2022-10-29T11:12:54.763Z,61.66
2022-10-29T11:13:53.771Z,62.51
2022-10-29T11:14:53.739Z,60.92
2022-10-29T11:15:53.736Z,60.84
2022-10-29T11:16:53.768Z,61.27
2022-10-29T11:17:54.548Z,59.63
2022-10-29T11:18:53.708Z,62.70
2022-10-29T11:19:53.726Z,62.70
2022-10-29T11:20:53.685Z,64.61
2022-10-29T11:21:53.682Z,63.54
2022-10-29T11:22:54.008Z,62.81
2022-10-29T11:23:53.678Z,64.26
2022-10-29T11:24:53.683Z,59.63
2022-10-29T11:25:53.654Z,61.36
2022-10-29T11:26:53.654Z,62.32
2022-10-29T11:27:53.638Z,62.81
2022-10-29T11:28:53.624Z,63.56
2022-10-29T11:29:53.657Z,63.72
2022-10-29T11:30:53.606Z,63.36
2022-10-29T11:31:53.608Z,63.14
2022-10-29T11:32:53.679Z,60.04
2022-10-29T11:33:53.589Z,62.59
2022-10-29T11:34:53.592Z,62.46
2022-10-29T11:35:56.056Z,59.98
2022-10-29T11:36:54.566Z,60.90
2022-10-29T11:37:53.849Z,60.54
2022-10-29T11:38:53.560Z,60.65
2022-10-29T11:39:53.536Z,61.55
2022-10-29T11:40:53.556Z,59.87
2022-10-29T11:41:53.557Z,61.89
2022-10-29T11:42:53.519Z,62.97
2022-10-29T11:43:53.517Z,64.21
2022-10-29T11:44:53.494Z,60.79
2022-10-29T11:45:53.496Z,63.60
2022-10-29T11:46:53.521Z,64.59
2022-10-29T11:47:53.649Z,63.55
2022-10-29T11:48:53.487Z,60.04
2022-10-29T11:49:53.461Z,62.67
2022-10-29T11:50:53.449Z,64.69
2022-10-29T11:51:53.440Z,64.28
2022-10-29T11:52:53.739Z,63.01
2022-10-29T11:53:53.429Z,62.96
2022-10-29T11:54:53.479Z,60.31
2022-10-29T11:55:53.422Z,58.46
2022-10-29T11:56:53.412Z,59.34
2022-10-29T11:57:53.448Z,59.15
2022-10-29T11:58:53.490Z,59.48
2022-10-29T11:59:53.371Z,58.38
2022-10-29T12:00:53.385Z,58.91
2022-10-29T12:01:53.512Z,60.87
2022-10-29T12:02:53.563Z,59.34
2022-10-29T12:03:53.341Z,60.62
2022-10-29T12:04:53.328Z,61.26
2022-10-29T12:05:53.376Z,60.72
2022-10-29T12:06:53.316Z,61.33
2022-10-29T12:07:53.425Z,60.37
2022-10-29T12:08:53.306Z,60.63
2022-10-29T12:09:53.300Z,60.33
2022-10-29T12:10:53.290Z,61.57
2022-10-29T12:11:53.367Z,60.90
2022-10-29T12:12:53.273Z,61.37
2022-10-29T12:13:53.272Z,59.86
2022-10-29T12:14:53.268Z,56.97
2022-10-29T12:15:53.251Z,56.87
2022-10-29T12:16:53.258Z,57.89
2022-10-29T12:17:53.381Z,57.49
2022-10-29T12:18:53.225Z,58.19
2022-10-29T12:19:53.290Z,57.40
2022-10-29T12:20:53.218Z,57.79
2022-10-29T12:21:53.221Z,55.83
2022-10-29T12:22:53.358Z,58.61
2022-10-29T12:23:53.202Z,58.35
2022-10-29T12:24:53.178Z,59.37
2022-10-29T12:25:53.170Z,58.45
2022-10-29T12:26:53.156Z,57.00
2022-10-29T12:27:53.183Z,59.51
2022-10-29T12:28:53.138Z,59.53
2022-10-29T12:29:53.130Z,57.67
2022-10-29T12:30:53.148Z,58.22
2022-10-29T12:31:53.161Z,55.80
2022-10-29T12:32:53.177Z,54.03
2022-10-29T12:33:53.196Z,56.08
2022-10-29T12:34:53.116Z,55.03
2022-10-29T12:35:53.204Z,58.66
2022-10-29T12:36:55.057Z,58.61
2022-10-29T12:37:53.118Z,59.05
2022-10-29T12:38:53.072Z,56.27
2022-10-29T12:39:53.075Z,58.05
2022-10-29T12:40:53.051Z,60.21
2022-10-29T12:41:53.044Z,57.93
2022-10-29T12:42:53.033Z,58.81
2022-10-29T12:43:53.024Z,59.77
2022-10-29T12:44:53.116Z,59.15
2022-10-29T12:46:14.718Z,61.37
2022-10-29T12:46:53.997Z,61.14
2022-10-29T12:47:53.140Z,59.09
2022-10-29T12:48:53.040Z,58.37
2022-10-29T12:49:52.986Z,57.11
2022-10-29T12:50:52.979Z,60.03
2022-10-29T12:51:52.992Z,58.77
2022-10-29T12:52:53.135Z,58.62
2022-10-29T12:53:52.958Z,61.47
2022-10-29T12:54:52.962Z,59.79
2022-10-29T12:55:52.994Z,60.30
2022-10-29T12:56:52.931Z,60.75
2022-10-29T12:57:52.916Z,60.30
2022-10-29T12:58:52.981Z,59.87
2022-10-29T12:59:52.899Z,60.41
2022-10-29T13:00:52.958Z,59.75
2022-10-29T13:02:54.046Z,60.80
2022-10-29T13:03:52.869Z,59.64
2022-10-29T13:04:52.866Z,60.20
2022-10-29T13:05:52.847Z,61.06
2022-10-29T13:06:52.845Z,59.95
2022-10-29T13:07:52.863Z,59.51
2022-10-29T13:08:52.851Z,60.62